sensor_id;sensor_type;location;lat;lon;timestamp;P1;durP1;ratioP1;P2;durP2;ratioP2
14094;SDS011;18096;48.142;16.290;2023-02-28T00:01:18;11.00;;;5.50;;
14094;SDS011;18096;48.142;16.290;2023-02-28T00:03:44;9.10;;;5.63;;
14094;SDS011;18096;48.142;16.290;2023-02-28T00:06:10;8.07;;;5.72;;
14094;SDS011;18096;48.142;16.290;2023-02-28T00:08:36;11.90;;;5.43;;
14094;SDS011;18096;48.142;16.290;2023-02-28T00:11:03;5.70;;;4.80;;
14094;SDS011;18096;48.142;16.290;2023-02-28T00:13:31;7.95;;;5.07;;
14094;SDS011;18096;48.142;16.290;2023-02-28T00:15:59;9.80;;;5.57;;
14094;SDS011;18096;48.142;16.290;2023-02-28T00:18:26;6.37;;;5.07;;
14094;SDS011;18096;48.142;16.290;2023-02-28T00:20:52;10.33;;;5.97;;
14094;SDS011;18096;48.142;16.290;2023-02-28T00:23:17;9.40;;;5.93;;
14094;SDS011;18096;48.142;16.290;2023-02-28T00:25:43;7.57;;;5.10;;
14094;SDS011;18096;48.142;16.290;2023-02-28T00:28:09;9.03;;;5.40;;
14094;SDS011;18096;48.142;16.290;2023-02-28T00:30:35;7.40;;;5.90;;
14094;SDS011;18096;48.142;16.290;2023-02-28T00:33:01;5.77;;;5.03;;
14094;SDS011;18096;48.142;16.290;2023-02-28T00:35:26;7.15;;;5.78;;
14094;SDS011;18096;48.142;16.290;2023-02-28T00:37:52;10.25;;;5.28;;
14094;SDS011;18096;48.142;16.290;2023-02-28T00:40:17;7.80;;;5.30;;
14094;SDS011;18096;48.142;16.290;2023-02-28T00:42:43;7.33;;;5.93;;
14094;SDS011;18096;48.142;16.290;2023-02-28T00:45:09;6.43;;;4.83;;
14094;SDS011;18096;48.142;16.290;2023-02-28T00:47:35;8.23;;;5.10;;
14094;SDS011;18096;48.142;16.290;2023-02-28T00:50:00;8.25;;;5.20;;
14094;SDS011;18096;48.142;16.290;2023-02-28T00:52:26;8.77;;;5.90;;
14094;SDS011;18096;48.142;16.290;2023-02-28T00:54:52;6.63;;;5.32;;
14094;SDS011;18096;48.142;16.290;2023-02-28T00:57:17;11.60;;;6.50;;
14094;SDS011;18096;48.142;16.290;2023-02-28T00:59:43;7.20;;;5.50;;
14094;SDS011;18096;48.142;16.290;2023-02-28T01:02:09;6.25;;;5.20;;
14094;SDS011;18096;48.142;16.290;2023-02-28T01:04:34;10.07;;;5.55;;
14094;SDS011;18096;48.142;16.290;2023-02-28T01:07:00;6.80;;;5.20;;
14094;SDS011;18096;48.142;16.290;2023-02-28T01:09:26;9.60;;;5.73;;
14094;SDS011;18096;48.142;16.290;2023-02-28T01:11:51;9.13;;;5.57;;
14094;SDS011;18096;48.142;16.290;2023-02-28T01:14:17;9.45;;;5.10;;
14094;SDS011;18096;48.142;16.290;2023-02-28T01:16:43;7.28;;;5.60;;
14094;SDS011;18096;48.142;16.290;2023-02-28T01:19:09;11.10;;;5.63;;
14094;SDS011;18096;48.142;16.290;2023-02-28T01:21:35;10.73;;;6.40;;
14094;SDS011;18096;48.142;16.290;2023-02-28T01:24:01;8.63;;;5.85;;
14094;SDS011;18096;48.142;16.290;2023-02-28T01:26:27;10.77;;;5.53;;
14094;SDS011;18096;48.142;16.290;2023-02-28T01:28:53;9.30;;;5.90;;
14094;SDS011;18096;48.142;16.290;2023-02-28T01:31:19;5.90;;;5.23;;
14094;SDS011;18096;48.142;16.290;2023-02-28T01:33:46;10.50;;;6.40;;
14094;SDS011;18096;48.142;16.290;2023-02-28T01:36:13;7.43;;;5.90;;
14094;SDS011;18096;48.142;16.290;2023-02-28T01:38:41;6.97;;;5.50;;
14094;SDS011;18096;48.142;16.290;2023-02-28T01:41:07;10.90;;;5.30;;
14094;SDS011;18096;48.142;16.290;2023-02-28T01:46:09;7.80;;;6.00;;
14094;SDS011;18096;48.142;16.290;2023-02-28T01:48:43;11.02;;;5.88;;
14094;SDS011;18096;48.142;16.290;2023-02-28T01:51:57;10.13;;;6.60;;
14094;SDS011;18096;48.142;16.290;2023-02-28T01:54:16;13.60;;;6.78;;
14094;SDS011;18096;48.142;16.290;2023-02-28T01:56:49;12.90;;;5.85;;
14094;SDS011;18096;48.142;16.290;2023-02-28T01:59:46;8.85;;;6.57;;
14094;SDS011;18096;48.142;16.290;2023-02-28T02:02:17;8.23;;;5.85;;
14094;SDS011;18096;48.142;16.290;2023-02-28T02:04:56;8.27;;;5.72;;
14094;SDS011;18096;48.142;16.290;2023-02-28T02:07:26;11.30;;;6.30;;
14094;SDS011;18096;48.142;16.290;2023-02-28T02:10:16;9.68;;;5.60;;
14094;SDS011;18096;48.142;16.290;2023-02-28T02:13:01;12.30;;;6.50;;
14094;SDS011;18096;48.142;16.290;2023-02-28T02:16:08;8.55;;;5.40;;
14094;SDS011;18096;48.142;16.290;2023-02-28T02:19:15;8.43;;;5.80;;
14094;SDS011;18096;48.142;16.290;2023-02-28T02:24:59;7.50;;;6.32;;
14094;SDS011;18096;48.142;16.290;2023-02-28T02:41:38;7.22;;;5.55;;
14094;SDS011;18096;48.142;16.290;2023-02-28T02:44:30;9.93;;;6.28;;
14094;SDS011;18096;48.142;16.290;2023-02-28T02:47:06;6.10;;;5.50;;
14094;SDS011;18096;48.142;16.290;2023-02-28T02:49:39;10.52;;;5.70;;
14094;SDS011;18096;48.142;16.290;2023-02-28T02:52:14;10.15;;;5.40;;
14094;SDS011;18096;48.142;16.290;2023-02-28T02:54:44;6.60;;;5.22;;
14094;SDS011;18096;48.142;16.290;2023-02-28T02:57:21;16.58;;;6.45;;
14094;SDS011;18096;48.142;16.290;2023-02-28T02:59:53;7.25;;;6.40;;
14094;SDS011;18096;48.142;16.290;2023-02-28T03:02:20;13.20;;;6.10;;
14094;SDS011;18096;48.142;16.290;2023-02-28T03:04:59;9.90;;;5.60;;
14094;SDS011;18096;48.142;16.290;2023-02-28T03:07:27;9.55;;;5.60;;
14094;SDS011;18096;48.142;16.290;2023-02-28T03:09:54;5.95;;;5.32;;
14094;SDS011;18096;48.142;16.290;2023-02-28T03:12:21;7.87;;;6.03;;
14094;SDS011;18096;48.142;16.290;2023-02-28T03:15:24;11.85;;;6.20;;
14094;SDS011;18096;48.142;16.290;2023-02-28T03:20:35;7.57;;;5.15;;
14094;SDS011;18096;48.142;16.290;2023-02-28T03:23:27;6.90;;;6.20;;
14094;SDS011;18096;48.142;16.290;2023-02-28T03:26:30;9.23;;;5.90;;
14094;SDS011;18096;48.142;16.290;2023-02-28T03:31:49;6.65;;;5.75;;
14094;SDS011;18096;48.142;16.290;2023-02-28T03:36:57;8.07;;;5.88;;
14094;SDS011;18096;48.142;16.290;2023-02-28T03:39:46;12.05;;;5.85;;
14094;SDS011;18096;48.142;16.290;2023-02-28T03:42:16;7.82;;;6.18;;
14094;SDS011;18096;48.142;16.290;2023-02-28T03:44:46;9.30;;;6.00;;
14094;SDS011;18096;48.142;16.290;2023-02-28T03:47:31;16.30;;;6.68;;
14094;SDS011;18096;48.142;16.290;2023-02-28T03:52:44;10.88;;;6.38;;
14094;SDS011;18096;48.142;16.290;2023-02-28T03:55:15;11.57;;;6.72;;
14094;SDS011;18096;48.142;16.290;2023-02-28T03:58:01;15.50;;;6.70;;
14094;SDS011;18096;48.142;16.290;2023-02-28T04:00:34;9.05;;;5.90;;
14094;SDS011;18096;48.142;16.290;2023-02-28T04:03:05;9.27;;;5.78;;
14094;SDS011;18096;48.142;16.290;2023-02-28T04:05:31;10.15;;;6.82;;
14094;SDS011;18096;48.142;16.290;2023-02-28T04:08:04;6.95;;;6.25;;
14094;SDS011;18096;48.142;16.290;2023-02-28T04:10:32;12.85;;;6.50;;
14094;SDS011;18096;48.142;16.290;2023-02-28T04:12:58;8.80;;;6.30;;
14094;SDS011;18096;48.142;16.290;2023-02-28T04:15:23;7.00;;;5.83;;
14094;SDS011;18096;48.142;16.290;2023-02-28T04:17:49;11.48;;;6.63;;
14094;SDS011;18096;48.142;16.290;2023-02-28T04:20:15;11.00;;;6.20;;
14094;SDS011;18096;48.142;16.290;2023-02-28T04:22:41;18.98;;;7.40;;
14094;SDS011;18096;48.142;16.290;2023-02-28T04:25:07;11.32;;;6.68;;
14094;SDS011;18096;48.142;16.290;2023-02-28T04:27:33;8.23;;;6.10;;
14094;SDS011;18096;48.142;16.290;2023-02-28T04:29:59;9.50;;;6.30;;
14094;SDS011;18096;48.142;16.290;2023-02-28T04:32:25;7.60;;;5.78;;
14094;SDS011;18096;48.142;16.290;2023-02-28T04:34:51;11.97;;;6.17;;
14094;SDS011;18096;48.142;16.290;2023-02-28T04:37:17;14.40;;;6.90;;
14094;SDS011;18096;48.142;16.290;2023-02-28T04:39:42;10.52;;;7.07;;
14094;SDS011;18096;48.142;16.290;2023-02-28T04:42:09;7.90;;;6.43;;
14094;SDS011;18096;48.142;16.290;2023-02-28T04:44:35;14.00;;;6.72;;
14094;SDS011;18096;48.142;16.290;2023-02-28T04:47:00;10.00;;;6.20;;
14094;SDS011;18096;48.142;16.290;2023-02-28T04:49:26;17.37;;;6.73;;
14094;SDS011;18096;48.142;16.290;2023-02-28T04:51:52;9.93;;;6.50;;
14094;SDS011;18096;48.142;16.290;2023-02-28T04:54:18;13.17;;;6.50;;
14094;SDS011;18096;48.142;16.290;2023-02-28T04:56:43;7.27;;;5.60;;
14094;SDS011;18096;48.142;16.290;2023-02-28T04:59:09;11.23;;;6.43;;
14094;SDS011;18096;48.142;16.290;2023-02-28T05:01:35;10.67;;;6.77;;
14094;SDS011;18096;48.142;16.290;2023-02-28T05:04:01;12.50;;;7.30;;
14094;SDS011;18096;48.142;16.290;2023-02-28T05:06:29;9.05;;;6.25;;
14094;SDS011;18096;48.142;16.290;2023-02-28T05:08:56;14.65;;;6.45;;
14094;SDS011;18096;48.142;16.290;2023-02-28T05:11:27;11.52;;;6.97;;
14094;SDS011;18096;48.142;16.290;2023-02-28T05:13:58;11.30;;;6.82;;
14094;SDS011;18096;48.142;16.290;2023-02-28T05:16:24;11.13;;;7.30;;
14094;SDS011;18096;48.142;16.290;2023-02-28T05:18:49;9.98;;;7.00;;
14094;SDS011;18096;48.142;16.290;2023-02-28T05:23:58;10.50;;;7.35;;
14094;SDS011;18096;48.142;16.290;2023-02-28T05:26:25;10.93;;;7.95;;
14094;SDS011;18096;48.142;16.290;2023-02-28T05:28:52;10.70;;;7.65;;
14094;SDS011;18096;48.142;16.290;2023-02-28T05:31:20;8.38;;;6.55;;
14094;SDS011;18096;48.142;16.290;2023-02-28T05:33:46;9.00;;;7.45;;
14094;SDS011;18096;48.142;16.290;2023-02-28T05:36:12;24.73;;;7.97;;
14094;SDS011;18096;48.142;16.290;2023-02-28T05:38:38;14.32;;;7.20;;
14094;SDS011;18096;48.142;16.290;2023-02-28T05:41:07;13.38;;;7.65;;
14094;SDS011;18096;48.142;16.290;2023-02-28T05:43:34;11.30;;;6.90;;
14094;SDS011;18096;48.142;16.290;2023-02-28T05:46:04;18.88;;;8.70;;
14094;SDS011;18096;48.142;16.290;2023-02-28T05:48:31;14.00;;;7.60;;
14094;SDS011;18096;48.142;16.290;2023-02-28T05:50:57;18.70;;;8.65;;
14094;SDS011;18096;48.142;16.290;2023-02-28T05:53:23;18.00;;;9.20;;
14094;SDS011;18096;48.142;16.290;2023-02-28T05:55:49;15.70;;;8.70;;
14094;SDS011;18096;48.142;16.290;2023-02-28T05:58:15;16.00;;;9.33;;
14094;SDS011;18096;48.142;16.290;2023-02-28T06:00:40;16.27;;;9.23;;
14094;SDS011;18096;48.142;16.290;2023-02-28T06:03:06;18.08;;;9.65;;
14094;SDS011;18096;48.142;16.290;2023-02-28T06:05:31;15.43;;;9.50;;
14094;SDS011;18096;48.142;16.290;2023-02-28T06:07:58;25.95;;;9.75;;
14094;SDS011;18096;48.142;16.290;2023-02-28T06:10:23;29.00;;;9.30;;
14094;SDS011;18096;48.142;16.290;2023-02-28T06:12:49;26.40;;;8.57;;
14094;SDS011;18096;48.142;16.290;2023-02-28T06:15:15;13.00;;;7.75;;
14094;SDS011;18096;48.142;16.290;2023-02-28T06:17:42;16.38;;;8.57;;
14094;SDS011;18096;48.142;16.290;2023-02-28T06:20:09;10.10;;;7.28;;
14094;SDS011;18096;48.142;16.290;2023-02-28T06:22:37;14.30;;;7.88;;
14094;SDS011;18096;48.142;16.290;2023-02-28T06:25:04;11.60;;;6.97;;
14094;SDS011;18096;48.142;16.290;2023-02-28T06:27:31;14.00;;;7.93;;
14094;SDS011;18096;48.142;16.290;2023-02-28T06:29:57;13.63;;;8.10;;
14094;SDS011;18096;48.142;16.290;2023-02-28T06:32:23;10.10;;;7.30;;
14094;SDS011;18096;48.142;16.290;2023-02-28T06:34:49;16.17;;;8.43;;
14094;SDS011;18096;48.142;16.290;2023-02-28T06:37:15;13.32;;;7.90;;
14094;SDS011;18096;48.142;16.290;2023-02-28T06:39:41;9.30;;;7.10;;
14094;SDS011;18096;48.142;16.290;2023-02-28T06:42:07;11.10;;;7.67;;
14094;SDS011;18096;48.142;16.290;2023-02-28T06:44:33;12.80;;;7.00;;
14094;SDS011;18096;48.142;16.290;2023-02-28T06:47:02;22.55;;;8.30;;
14094;SDS011;18096;48.142;16.290;2023-02-28T06:49:29;11.43;;;7.40;;
14094;SDS011;18096;48.142;16.290;2023-02-28T06:51:56;13.45;;;7.80;;
14094;SDS011;18096;48.142;16.290;2023-02-28T06:54:21;10.88;;;7.20;;
14094;SDS011;18096;48.142;16.290;2023-02-28T06:56:47;11.50;;;7.83;;
14094;SDS011;18096;48.142;16.290;2023-02-28T06:59:13;12.77;;;7.43;;
14094;SDS011;18096;48.142;16.290;2023-02-28T07:01:39;15.07;;;8.02;;
14094;SDS011;18096;48.142;16.290;2023-02-28T07:04:05;13.00;;;8.57;;
14094;SDS011;18096;48.142;16.290;2023-02-28T07:06:31;18.75;;;7.82;;
14094;SDS011;18096;48.142;16.290;2023-02-28T07:08:57;10.15;;;7.40;;
14094;SDS011;18096;48.142;16.290;2023-02-28T07:11:24;11.52;;;8.27;;
14094;SDS011;18096;48.142;16.290;2023-02-28T07:13:54;15.75;;;8.73;;
14094;SDS011;18096;48.142;16.290;2023-02-28T07:16:20;14.50;;;8.35;;
14094;SDS011;18096;48.142;16.290;2023-02-28T07:18:47;9.48;;;7.53;;
14094;SDS011;18096;48.142;16.290;2023-02-28T07:21:13;12.43;;;7.90;;
14094;SDS011;18096;48.142;16.290;2023-02-28T07:23:39;13.43;;;8.70;;
14094;SDS011;18096;48.142;16.290;2023-02-28T07:26:07;10.60;;;7.83;;
14094;SDS011;18096;48.142;16.290;2023-02-28T07:28:40;12.45;;;7.60;;
14094;SDS011;18096;48.142;16.290;2023-02-28T07:31:07;16.05;;;7.97;;
14094;SDS011;18096;48.142;16.290;2023-02-28T07:33:34;11.00;;;8.48;;
14094;SDS011;18096;48.142;16.290;2023-02-28T07:36:04;11.20;;;7.70;;
14094;SDS011;18096;48.142;16.290;2023-02-28T07:38:35;10.85;;;7.10;;
14094;SDS011;18096;48.142;16.290;2023-02-28T07:41:02;14.45;;;8.90;;
14094;SDS011;18096;48.142;16.290;2023-02-28T07:43:31;16.42;;;8.45;;
14094;SDS011;18096;48.142;16.290;2023-02-28T07:46:01;10.82;;;8.23;;
14094;SDS011;18096;48.142;16.290;2023-02-28T07:48:31;11.60;;;8.40;;
14094;SDS011;18096;48.142;16.290;2023-02-28T07:50:58;13.20;;;9.17;;
14094;SDS011;18096;48.142;16.290;2023-02-28T07:53:24;15.67;;;8.77;;
14094;SDS011;18096;48.142;16.290;2023-02-28T07:55:54;17.95;;;8.82;;
14094;SDS011;18096;48.142;16.290;2023-02-28T07:58:23;12.75;;;9.07;;
14094;SDS011;18096;48.142;16.290;2023-02-28T08:00:50;8.48;;;7.38;;
14094;SDS011;18096;48.142;16.290;2023-02-28T08:03:20;11.45;;;8.10;;
14094;SDS011;18096;48.142;16.290;2023-02-28T08:05:47;14.05;;;8.65;;
14094;SDS011;18096;48.142;16.290;2023-02-28T08:08:13;18.83;;;9.02;;
14094;SDS011;18096;48.142;16.290;2023-02-28T08:10:40;14.63;;;8.95;;
14094;SDS011;18096;48.142;16.290;2023-02-28T08:13:05;15.70;;;8.93;;
14094;SDS011;18096;48.142;16.290;2023-02-28T08:15:31;14.90;;;8.65;;
14094;SDS011;18096;48.142;16.290;2023-02-28T08:17:57;16.23;;;8.63;;
14094;SDS011;18096;48.142;16.290;2023-02-28T08:20:23;13.40;;;8.75;;
14094;SDS011;18096;48.142;16.290;2023-02-28T08:22:50;11.40;;;8.50;;
14094;SDS011;18096;48.142;16.290;2023-02-28T08:25:16;12.18;;;8.30;;
14094;SDS011;18096;48.142;16.290;2023-02-28T08:27:41;12.20;;;8.73;;
14094;SDS011;18096;48.142;16.290;2023-02-28T08:30:07;14.50;;;8.80;;
14094;SDS011;18096;48.142;16.290;2023-02-28T08:32:39;11.90;;;8.13;;
14094;SDS011;18096;48.142;16.290;2023-02-28T08:35:05;13.38;;;8.65;;
14094;SDS011;18096;48.142;16.290;2023-02-28T08:37:31;11.15;;;7.53;;
14094;SDS011;18096;48.142;16.290;2023-02-28T08:39:57;14.13;;;10.03;;
14094;SDS011;18096;48.142;16.290;2023-02-28T08:42:23;17.05;;;8.57;;
14094;SDS011;18096;48.142;16.290;2023-02-28T08:44:49;12.77;;;8.75;;
14094;SDS011;18096;48.142;16.290;2023-02-28T08:47:15;11.70;;;8.50;;
14094;SDS011;18096;48.142;16.290;2023-02-28T08:49:41;13.63;;;8.37;;
14094;SDS011;18096;48.142;16.290;2023-02-28T08:52:06;10.90;;;7.97;;
14094;SDS011;18096;48.142;16.290;2023-02-28T08:54:32;16.35;;;8.55;;
14094;SDS011;18096;48.142;16.290;2023-02-28T08:56:59;16.75;;;8.25;;
14094;SDS011;18096;48.142;16.290;2023-02-28T08:59:25;10.38;;;6.60;;
14094;SDS011;18096;48.142;16.290;2023-02-28T09:01:50;10.90;;;7.10;;
14094;SDS011;18096;48.142;16.290;2023-02-28T09:04:16;10.60;;;6.77;;
14094;SDS011;18096;48.142;16.290;2023-02-28T09:06:42;12.43;;;7.13;;
14094;SDS011;18096;48.142;16.290;2023-02-28T09:09:07;14.85;;;7.20;;
14094;SDS011;18096;48.142;16.290;2023-02-28T09:11:34;10.32;;;8.05;;
14094;SDS011;18096;48.142;16.290;2023-02-28T09:14:00;11.55;;;8.00;;
14094;SDS011;18096;48.142;16.290;2023-02-28T09:16:28;10.63;;;6.90;;
14094;SDS011;18096;48.142;16.290;2023-02-28T09:18:55;11.55;;;6.70;;
14094;SDS011;18096;48.142;16.290;2023-02-28T09:21:22;11.48;;;7.85;;
14094;SDS011;18096;48.142;16.290;2023-02-28T09:23:48;10.95;;;7.90;;
14094;SDS011;18096;48.142;16.290;2023-02-28T09:26:19;10.75;;;7.72;;
14094;SDS011;18096;48.142;16.290;2023-02-28T09:28:49;11.98;;;7.10;;
14094;SDS011;18096;48.142;16.290;2023-02-28T09:31:18;11.43;;;7.82;;
14094;SDS011;18096;48.142;16.290;2023-02-28T09:33:49;13.07;;;7.15;;
14094;SDS011;18096;48.142;16.290;2023-02-28T09:36:16;12.05;;;7.40;;
14094;SDS011;18096;48.142;16.290;2023-02-28T09:38:42;13.50;;;8.02;;
14094;SDS011;18096;48.142;16.290;2023-02-28T09:41:14;17.77;;;7.43;;
14094;SDS011;18096;48.142;16.290;2023-02-28T09:43:47;11.55;;;7.93;;
14094;SDS011;18096;48.142;16.290;2023-02-28T09:48:54;18.43;;;7.83;;
14094;SDS011;18096;48.142;16.290;2023-02-28T09:53:59;8.82;;;6.43;;
14094;SDS011;18096;48.142;16.290;2023-02-28T09:56:28;11.30;;;7.40;;
14094;SDS011;18096;48.142;16.290;2023-02-28T10:06:54;14.38;;;7.25;;
14094;SDS011;18096;48.142;16.290;2023-02-28T10:09:23;12.75;;;8.70;;
14094;SDS011;18096;48.142;16.290;2023-02-28T10:11:56;11.55;;;8.48;;
14094;SDS011;18096;48.142;16.290;2023-02-28T10:14:28;12.55;;;8.13;;
14094;SDS011;18096;48.142;16.290;2023-02-28T10:16:58;13.55;;;8.88;;
14094;SDS011;18096;48.142;16.290;2023-02-28T10:19:41;17.15;;;8.23;;
14094;SDS011;18096;48.142;16.290;2023-02-28T10:22:31;12.60;;;8.30;;
14094;SDS011;18096;48.142;16.290;2023-02-28T10:25:05;15.77;;;7.93;;
14094;SDS011;18096;48.142;16.290;2023-02-28T10:27:45;13.52;;;8.27;;
14094;SDS011;18096;48.142;16.290;2023-02-28T10:30:11;11.27;;;8.30;;
14094;SDS011;18096;48.142;16.290;2023-02-28T10:32:38;12.02;;;8.32;;
14094;SDS011;18096;48.142;16.290;2023-02-28T10:37:44;11.75;;;7.60;;
14094;SDS011;18096;48.142;16.290;2023-02-28T10:42:57;12.02;;;7.07;;
14094;SDS011;18096;48.142;16.290;2023-02-28T10:45:31;11.73;;;7.13;;
14094;SDS011;18096;48.142;16.290;2023-02-28T11:01:59;12.57;;;7.78;;
14094;SDS011;18096;48.142;16.290;2023-02-28T11:04:00;18.33;;;8.00;;
14094;SDS011;18096;48.142;16.290;2023-02-28T11:06:30;12.38;;;6.80;;
14094;SDS011;18096;48.142;16.290;2023-02-28T11:08:58;12.93;;;8.23;;
14094;SDS011;18096;48.142;16.290;2023-02-28T11:11:30;12.40;;;7.37;;
14094;SDS011;18096;48.142;16.290;2023-02-28T11:14:14;11.82;;;7.93;;
14094;SDS011;18096;48.142;16.290;2023-02-28T11:16:45;13.32;;;7.47;;
14094;SDS011;18096;48.142;16.290;2023-02-28T11:19:19;16.65;;;7.18;;
14094;SDS011;18096;48.142;16.290;2023-02-28T11:21:58;14.50;;;8.48;;
14094;SDS011;18096;48.142;16.290;2023-02-28T11:26:57;12.07;;;7.35;;
14094;SDS011;18096;48.142;16.290;2023-02-28T11:34:38;10.93;;;7.60;;
14094;SDS011;18096;48.142;16.290;2023-02-28T11:37:08;11.23;;;8.20;;
14094;SDS011;18096;48.142;16.290;2023-02-28T11:39:40;17.63;;;7.20;;
14094;SDS011;18096;48.142;16.290;2023-02-28T11:48:11;10.60;;;7.53;;
14094;SDS011;18096;48.142;16.290;2023-02-28T12:01:01;12.48;;;8.10;;
14094;SDS011;18096;48.142;16.290;2023-02-28T12:06:43;13.43;;;8.30;;
14094;SDS011;18096;48.142;16.290;2023-02-28T12:09:28;11.70;;;8.48;;
14094;SDS011;18096;48.142;16.290;2023-02-28T12:12:37;13.57;;;8.85;;
14094;SDS011;18096;48.142;16.290;2023-02-28T12:15:18;13.57;;;7.93;;
14094;SDS011;18096;48.142;16.290;2023-02-28T12:28:52;9.25;;;7.25;;
14094;SDS011;18096;48.142;16.290;2023-02-28T12:31:24;12.15;;;8.15;;
14094;SDS011;18096;48.142;16.290;2023-02-28T12:34:33;14.40;;;7.47;;
14094;SDS011;18096;48.142;16.290;2023-02-28T12:36:53;15.85;;;7.50;;
14094;SDS011;18096;48.142;16.290;2023-02-28T12:39:24;12.45;;;6.82;;
14094;SDS011;18096;48.142;16.290;2023-02-28T12:41:59;12.25;;;7.05;;
14094;SDS011;18096;48.142;16.290;2023-02-28T12:44:44;10.82;;;7.00;;
14094;SDS011;18096;48.142;16.290;2023-02-28T12:47:18;11.57;;;7.33;;
14094;SDS011;18096;48.142;16.290;2023-02-28T12:49:51;8.15;;;6.28;;
14094;SDS011;18096;48.142;16.290;2023-02-28T12:52:34;11.18;;;7.28;;
14094;SDS011;18096;48.142;16.290;2023-02-28T13:00:33;7.07;;;5.57;;
14094;SDS011;18096;48.142;16.290;2023-02-28T13:14:30;15.20;;;5.60;;
14094;SDS011;18096;48.142;16.290;2023-02-28T13:17:10;8.18;;;5.00;;
14094;SDS011;18096;48.142;16.290;2023-02-28T13:19:42;6.47;;;4.88;;
14094;SDS011;18096;48.142;16.290;2023-02-28T13:25:00;8.00;;;5.20;;
14094;SDS011;18096;48.142;16.290;2023-02-28T13:27:37;11.38;;;5.00;;
14094;SDS011;18096;48.142;16.290;2023-02-28T13:36:27;7.22;;;5.32;;
14094;SDS011;18096;48.142;16.290;2023-02-28T13:39:00;8.93;;;5.57;;
14094;SDS011;18096;48.142;16.290;2023-02-28T13:41:46;7.88;;;5.85;;
14094;SDS011;18096;48.142;16.290;2023-02-28T13:44:22;5.40;;;4.90;;
14094;SDS011;18096;48.142;16.290;2023-02-28T13:49:25;7.32;;;4.90;;
14094;SDS011;18096;48.142;16.290;2023-02-28T14:04:06;7.57;;;5.30;;
14094;SDS011;18096;48.142;16.290;2023-02-28T14:06:51;7.30;;;5.88;;
14094;SDS011;18096;48.142;16.290;2023-02-28T14:09:29;6.63;;;5.50;;
14094;SDS011;18096;48.142;16.290;2023-02-28T14:13:03;9.82;;;5.22;;
14094;SDS011;18096;48.142;16.290;2023-02-28T14:17:58;7.03;;;4.80;;
14094;SDS011;18096;48.142;16.290;2023-02-28T14:20:29;5.03;;;4.60;;
14094;SDS011;18096;48.142;16.290;2023-02-28T14:28:46;7.88;;;5.60;;
14094;SDS011;18096;48.142;16.290;2023-02-28T14:31:23;6.60;;;5.55;;
14094;SDS011;18096;48.142;16.290;2023-02-28T14:36:27;5.85;;;4.60;;
14094;SDS011;18096;48.142;16.290;2023-02-28T14:39:04;6.70;;;5.07;;
14094;SDS011;18096;48.142;16.290;2023-02-28T14:41:37;8.65;;;5.43;;
14094;SDS011;18096;48.142;16.290;2023-02-28T14:46:41;4.82;;;4.38;;
14094;SDS011;18096;48.142;16.290;2023-02-28T14:54:52;11.88;;;7.45;;
14094;SDS011;18096;48.142;16.290;2023-02-28T14:57:32;24.52;;;12.82;;
14094;SDS011;18096;48.142;16.290;2023-02-28T15:00:00;9.27;;;6.13;;
14094;SDS011;18096;48.142;16.290;2023-02-28T15:02:41;11.18;;;5.32;;
14094;SDS011;18096;48.142;16.290;2023-02-28T15:07:45;7.15;;;5.88;;
14094;SDS011;18096;48.142;16.290;2023-02-28T15:10:25;7.50;;;4.78;;
14094;SDS011;18096;48.142;16.290;2023-02-28T15:12:53;18.10;;;5.13;;
14094;SDS011;18096;48.142;16.290;2023-02-28T15:15:45;7.18;;;4.60;;
14094;SDS011;18096;48.142;16.290;2023-02-28T15:20:48;6.23;;;4.97;;
14094;SDS011;18096;48.142;16.290;2023-02-28T15:23:15;8.75;;;5.55;;
14094;SDS011;18096;48.142;16.290;2023-02-28T15:25:42;12.32;;;5.15;;
14094;SDS011;18096;48.142;16.290;2023-02-28T15:28:16;5.70;;;4.80;;
14094;SDS011;18096;48.142;16.290;2023-02-28T15:30:52;7.82;;;5.60;;
14094;SDS011;18096;48.142;16.290;2023-02-28T15:33:21;10.25;;;6.15;;
14094;SDS011;18096;48.142;16.290;2023-02-28T15:36:03;11.57;;;6.30;;
14094;SDS011;18096;48.142;16.290;2023-02-28T15:38:39;7.05;;;5.30;;
14094;SDS011;18096;48.142;16.290;2023-02-28T15:41:20;8.80;;;5.63;;
14094;SDS011;18096;48.142;16.290;2023-02-28T15:46:54;15.20;;;5.53;;
14094;SDS011;18096;48.142;16.290;2023-02-28T15:49:30;9.37;;;5.70;;
14094;SDS011;18096;48.142;16.290;2023-02-28T15:52:04;7.32;;;6.03;;
14094;SDS011;18096;48.142;16.290;2023-02-28T15:54:32;7.35;;;5.35;;
14094;SDS011;18096;48.142;16.290;2023-02-28T15:57:05;9.27;;;5.78;;
14094;SDS011;18096;48.142;16.290;2023-02-28T15:59:37;6.38;;;5.05;;
14094;SDS011;18096;48.142;16.290;2023-02-28T16:04:35;5.97;;;5.25;;
14094;SDS011;18096;48.142;16.290;2023-02-28T16:07:02;9.90;;;5.73;;
14094;SDS011;18096;48.142;16.290;2023-02-28T16:09:30;10.10;;;5.53;;
14094;SDS011;18096;48.142;16.290;2023-02-28T16:11:58;8.82;;;5.65;;
14094;SDS011;18096;48.142;16.290;2023-02-28T16:14:29;6.15;;;5.28;;
14094;SDS011;18096;48.142;16.290;2023-02-28T16:16:56;17.05;;;6.32;;
14094;SDS011;18096;48.142;16.290;2023-02-28T16:19:28;10.05;;;5.95;;
14094;SDS011;18096;48.142;16.290;2023-02-28T16:21:54;7.90;;;6.03;;
14094;SDS011;18096;48.142;16.290;2023-02-28T16:24:19;9.15;;;5.35;;
14094;SDS011;18096;48.142;16.290;2023-02-28T16:26:46;8.80;;;6.00;;
14094;SDS011;18096;48.142;16.290;2023-02-28T16:29:14;9.52;;;5.75;;
14094;SDS011;18096;48.142;16.290;2023-02-28T16:31:45;7.95;;;5.60;;
14094;SDS011;18096;48.142;16.290;2023-02-28T16:34:11;7.68;;;6.20;;
14094;SDS011;18096;48.142;16.290;2023-02-28T16:36:37;10.93;;;5.77;;
14094;SDS011;18096;48.142;16.290;2023-02-28T16:39:03;8.17;;;5.87;;
14094;SDS011;18096;48.142;16.290;2023-02-28T16:41:30;13.10;;;6.10;;
14094;SDS011;18096;48.142;16.290;2023-02-28T16:43:56;9.25;;;5.72;;
14094;SDS011;18096;48.142;16.290;2023-02-28T16:46:27;7.60;;;5.70;;
14094;SDS011;18096;48.142;16.290;2023-02-28T16:48:58;10.85;;;6.07;;
14094;SDS011;18096;48.142;16.290;2023-02-28T16:51:25;12.93;;;7.28;;
14094;SDS011;18096;48.142;16.290;2023-02-28T16:53:50;9.05;;;6.43;;
14094;SDS011;18096;48.142;16.290;2023-02-28T16:56:23;6.80;;;5.80;;
14094;SDS011;18096;48.142;16.290;2023-02-28T16:58:53;9.50;;;6.33;;
14094;SDS011;18096;48.142;16.290;2023-02-28T17:01:22;12.00;;;5.90;;
14094;SDS011;18096;48.142;16.290;2023-02-28T17:03:49;9.30;;;7.20;;
14094;SDS011;18096;48.142;16.290;2023-02-28T17:06:25;14.85;;;7.07;;
14094;SDS011;18096;48.142;16.290;2023-02-28T17:08:53;8.10;;;6.05;;
14094;SDS011;18096;48.142;16.290;2023-02-28T17:11:20;11.80;;;6.40;;
14094;SDS011;18096;48.142;16.290;2023-02-28T17:13:46;9.15;;;7.13;;
14094;SDS011;18096;48.142;16.290;2023-02-28T17:16:32;10.15;;;6.30;;
14094;SDS011;18096;48.142;16.290;2023-02-28T17:19:00;14.93;;;6.97;;
14094;SDS011;18096;48.142;16.290;2023-02-28T17:21:28;9.35;;;6.70;;
14094;SDS011;18096;48.142;16.290;2023-02-28T17:23:55;15.27;;;7.47;;
14094;SDS011;18096;48.142;16.290;2023-02-28T17:26:23;12.90;;;8.07;;
14094;SDS011;18096;48.142;16.290;2023-02-28T17:28:53;12.67;;;7.70;;
14094;SDS011;18096;48.142;16.290;2023-02-28T17:31:21;15.77;;;7.65;;
14094;SDS011;18096;48.142;16.290;2023-02-28T17:33:47;19.48;;;8.27;;
14094;SDS011;18096;48.142;16.290;2023-02-28T17:36:14;13.98;;;8.82;;
14094;SDS011;18096;48.142;16.290;2023-02-28T17:38:41;16.53;;;10.37;;